sensor_id;sensor_type;location;lat;lon;timestamp;pressure;altitude;pressure_sealevel;temperature;humidity
76406;BME280;65234;50.044;19.258;2023-02-22T00:01:41;98712.19;;;4.78;100.00
76406;BME280;65234;50.044;19.258;2023-02-22T00:04:09;98714.53;;;4.76;100.00
76406;BME280;65234;50.044;19.258;2023-02-22T00:06:36;98723.09;;;4.74;100.00
76406;BME280;65234;50.044;19.258;2023-02-22T00:09:02;98726.31;;;4.77;100.00
76406;BME280;65234;50.044;19.258;2023-02-22T00:11:28;98721.97;;;4.75;100.00
76406;BME280;65234;50.044;19.258;2023-02-22T00:13:54;98729.25;;;4.68;100.00
76406;BME280;65234;50.044;19.258;2023-02-22T00:16:21;98731.63;;;4.69;100.00
76406;BME280;65234;50.044;19.258;2023-02-22T00:18:47;98731.63;;;4.69;100.00
76406;BME280;65234;50.044;19.258;2023-02-22T00:21:15;98732.44;;;4.70;100.00
76406;BME280;65234;50.044;19.258;2023-02-22T00:23:44;98740.38;;;4.75;100.00
76406;BME280;65234;50.044;19.258;2023-02-22T00:26:11;98728.53;;;4.71;100.00
76406;BME280;65234;50.044;19.258;2023-02-22T00:28:38;98733.13;;;4.67;100.00
76406;BME280;65234;50.044;19.258;2023-02-22T00:31:05;98733.13;;;4.67;100.00
76406;BME280;65234;50.044;19.258;2023-02-22T00:33:32;98734.31;;;4.66;100.00
76406;BME280;65234;50.044;19.258;2023-02-22T00:35:58;98731.91;;;4.64;100.00
76406;BME280;65234;50.044;19.258;2023-02-22T00:38:24;98731.84;;;4.61;100.00
76406;BME280;65234;50.044;19.258;2023-02-22T00:40:51;98734.59;;;4.61;100.00
76406;BME280;65234;50.044;19.258;2023-02-22T00:43:17;98736.19;;;4.62;100.00
76406;BME280;65234;50.044;19.258;2023-02-22T00:45:42;98740.88;;;4.61;100.00
76406;BME280;65234;50.044;19.258;2023-02-22T00:48:09;98737.69;;;4.59;100.00
76406;BME280;65234;50.044;19.258;2023-02-22T00:50:35;98741.94;;;4.57;100.00
76406;BME280;65234;50.044;19.258;2023-02-22T00:53:03;98739.47;;;4.52;100.00
76406;BME280;65234;50.044;19.258;2023-02-22T00:55:31;98750.03;;;4.50;100.00
76406;BME280;65234;50.044;19.258;2023-02-22T00:57:58;98747.53;;;4.45;100.00
76406;BME280;65234;50.044;19.258;2023-02-22T01:00:27;98740.03;;;4.42;100.00
76406;BME280;65234;50.044;19.258;2023-02-22T01:02:52;98743.94;;;4.41;100.00
76406;BME280;65234;50.044;19.258;2023-02-22T01:05:22;98745.00;;;4.36;100.00
76406;BME280;65234;50.044;19.258;2023-02-22T01:07:48;98748.28;;;4.42;100.00
76406;BME280;65234;50.044;19.258;2023-02-22T01:10:17;98743.06;;;4.37;100.00
76406;BME280;65234;50.044;19.258;2023-02-22T01:12:43;98749.41;;;4.41;100.00
76406;BME280;65234;50.044;19.258;2023-02-22T01:15:12;98745.78;;;4.37;100.00
76406;BME280;65234;50.044;19.258;2023-02-22T01:17:38;98750.47;;;4.36;100.00
76406;BME280;65234;50.044;19.258;2023-02-22T01:20:07;98745.78;;;4.37;100.00
76406;BME280;65234;50.044;19.258;2023-02-22T01:22:33;98749.34;;;4.37;100.00
76406;BME280;65234;50.044;19.258;2023-02-22T01:24:59;98740.94;;;4.30;100.00
76406;BME280;65234;50.044;19.258;2023-02-22T01:27:24;98743.16;;;4.24;100.00
76406;BME280;65234;50.044;19.258;2023-02-22T01:29:50;98738.41;;;4.21;100.00
76406;BME280;65234;50.044;19.258;2023-02-22T01:32:17;98728.84;;;4.15;100.00
76406;BME280;65234;50.044;19.258;2023-02-22T01:34:43;98733.91;;;4.13;100.00
76406;BME280;65234;50.044;19.258;2023-02-22T01:37:08;98736.97;;;4.12;100.00
76406;BME280;65234;50.044;19.258;2023-02-22T01:39:34;98735.59;;;4.02;100.00
76406;BME280;65234;50.044;19.258;2023-02-22T01:42:00;98730.47;;;4.01;100.00
76406;BME280;65234;50.044;19.258;2023-02-22T01:44:28;98732.06;;;4.02;100.00
76406;BME280;65234;50.044;19.258;2023-02-22T01:46:54;98729.66;;;4.00;100.00
76406;BME280;65234;50.044;19.258;2023-02-22T01:49:23;98730.63;;;3.92;100.00
76406;BME280;65234;50.044;19.258;2023-02-22T01:51:52;98731.34;;;3.89;100.00
76406;BME280;65234;50.044;19.258;2023-02-22T01:54:24;98737.25;;;3.91;100.00
76406;BME280;65234;50.044;19.258;2023-02-22T01:57:05;98729.59;;;3.81;100.00
76406;BME280;65234;50.044;19.258;2023-02-22T01:59:35;98736.81;;;3.89;100.00
76406;BME280;65234;50.044;19.258;2023-02-22T02:02:01;98734.25;;;3.80;100.00
76406;BME280;65234;50.044;19.258;2023-02-22T02:04:30;98741.25;;;3.78;100.00
76406;BME280;65234;50.044;19.258;2023-02-22T02:06:59;98733.63;;;3.71;100.00
76406;BME280;65234;50.044;19.258;2023-02-22T02:09:29;98727.56;;;3.62;100.00
76406;BME280;65234;50.044;19.258;2023-02-22T02:11:58;98728.78;;;3.65;100.00
76406;BME280;65234;50.044;19.258;2023-02-22T02:14:24;98733.13;;;3.66;100.00
76406;BME280;65234;50.044;19.258;2023-02-22T02:16:51;98729.25;;;3.67;100.00
76406;BME280;65234;50.044;19.258;2023-02-22T02:19:24;98734.50;;;3.60;100.00
76406;BME280;65234;50.044;19.258;2023-02-22T02:22:18;98730.38;;;3.66;100.00
76406;BME280;65234;50.044;19.258;2023-02-22T02:25:18;98718.53;;;3.62;100.00
76406;BME280;65234;50.044;19.258;2023-02-22T02:28:16;98726.56;;;3.55;100.00
76406;BME280;65234;50.044;19.258;2023-02-22T02:31:09;98726.19;;;3.41;100.00
76406;BME280;65234;50.044;19.258;2023-02-22T02:33:48;98731.00;;;3.44;100.00
76406;BME280;65234;50.044;19.258;2023-02-22T02:36:18;98726.47;;;3.36;100.00
76406;BME280;65234;50.044;19.258;2023-02-22T02:38:48;98727.59;;;3.35;100.00
76406;BME280;65234;50.044;19.258;2023-02-22T02:41:23;98733.78;;;3.31;100.00
76406;BME280;65234;50.044;19.258;2023-02-22T02:43:56;98732.19;;;3.30;100.00
76406;BME280;65234;50.044;19.258;2023-02-22T02:46:26;98729.44;;;3.30;100.00
76406;BME280;65234;50.044;19.258;2023-02-22T02:48:57;98730.59;;;3.29;100.00
76406;BME280;65234;50.044;19.258;2023-02-22T02:51:29;98726.72;;;3.30;100.00
76406;BME280;65234;50.044;19.258;2023-02-22T02:53:58;98737.41;;;3.36;100.00
76406;BME280;65234;50.044;19.258;2023-02-22T02:56:25;98739.59;;;3.30;100.00
76406;BME280;65234;50.044;19.258;2023-02-22T02:58:52;98739.25;;;3.31;100.00
76406;BME280;65234;50.044;19.258;2023-02-22T03:01:28;98725.47;;;3.28;100.00
76406;BME280;65234;50.044;19.258;2023-02-22T03:04:04;98735.34;;;3.32;100.00
76406;BME280;65234;50.044;19.258;2023-02-22T03:06:57;98740.03;;;3.32;100.00
76406;BME280;65234;50.044;19.258;2023-02-22T03:09:38;98748.53;;;3.27;100.00
76406;BME280;65234;50.044;19.258;2023-02-22T03:12:26;98749.81;;;3.17;100.00
76406;BME280;65234;50.044;19.258;2023-02-22T03:15:04;98740.47;;;3.18;100.00
76406;BME280;65234;50.044;19.258;2023-02-22T03:17:39;98745.94;;;3.18;100.00
76406;BME280;65234;50.044;19.258;2023-02-22T03:20:14;98753.16;;;3.11;100.00
76406;BME280;65234;50.044;19.258;2023-02-22T03:22:49;98750.75;;;3.09;100.00
76406;BME280;65234;50.044;19.258;2023-02-22T03:25:19;98766.38;;;3.09;100.00
76406;BME280;65234;50.044;19.258;2023-02-22T03:27:48;98760.41;;;2.91;100.00
76406;BME280;65234;50.044;19.258;2023-02-22T03:30:19;98760.41;;;2.91;100.00
76406;BME280;65234;50.044;19.258;2023-02-22T03:32:50;98762.94;;;2.84;100.00
76406;BME280;65234;50.044;19.258;2023-02-22T03:35:20;98759.97;;;2.77;100.00
76406;BME280;65234;50.044;19.258;2023-02-22T03:37:52;98759.56;;;2.75;100.00
76406;BME280;65234;50.044;19.258;2023-02-22T03:40:24;98756.25;;;2.69;100.00
76406;BME280;65234;50.044;19.258;2023-02-22T03:42:53;98764.00;;;2.67;100.00
76406;BME280;65234;50.044;19.258;2023-02-22T03:45:23;98763.13;;;2.63;100.00
76406;BME280;65234;50.044;19.258;2023-02-22T03:47:57;98755.59;;;2.60;100.00
76406;BME280;65234;50.044;19.258;2023-02-22T03:50:28;98751.16;;;2.56;100.00
76406;BME280;65234;50.044;19.258;2023-02-22T03:52:55;98753.44;;;2.54;100.00
76406;BME280;65234;50.044;19.258;2023-02-22T03:55:22;98759.59;;;2.51;100.00
76406;BME280;65234;50.044;19.258;2023-02-22T03:57:49;98760.19;;;2.44;100.00
76406;BME280;65234;50.044;19.258;2023-02-22T04:00:18;98768.72;;;2.30;100.00
76406;BME280;65234;50.044;19.258;2023-02-22T04:02:48;98765.91;;;2.27;100.00
76406;BME280;65234;50.044;19.258;2023-02-22T04:05:13;98772.84;;;2.24;100.00
76406;BME280;65234;50.044;19.258;2023-02-22T04:07:41;98773.41;;;2.18;100.00
76406;BME280;65234;50.044;19.258;2023-02-22T04:10:07;98773.28;;;2.14;100.00
76406;BME280;65234;50.044;19.258;2023-02-22T04:12:33;98776.03;;;2.14;100.00
76406;BME280;65234;50.044;19.258;2023-02-22T04:14:58;98775.22;;;2.14;100.00
76406;BME280;65234;50.044;19.258;2023-02-22T04:17:24;98780.81;;;2.17;100.00
76406;BME280;65234;50.044;19.258;2023-02-22T04:19:50;98778.22;;;2.21;100.00
76406;BME280;65234;50.044;19.258;2023-02-22T04:22:16;98764.97;;;2.23;100.00
76406;BME280;65234;50.044;19.258;2023-02-22T04:24:43;98772.84;;;2.24;100.00
76406;BME280;65234;50.044;19.258;2023-02-22T04:27:09;98773.50;;;2.21;100.00
76406;BME280;65234;50.044;19.258;2023-02-22T04:29:34;98766.59;;;2.24;100.00
76406;BME280;65234;50.044;19.258;2023-02-22T04:32:00;98759.53;;;2.23;100.00
76406;BME280;65234;50.044;19.258;2023-02-22T04:34:26;98768.72;;;2.30;100.00
76406;BME280;65234;50.044;19.258;2023-02-22T04:36:51;98760.75;;;2.37;100.00
76406;BME280;65234;50.044;19.258;2023-02-22T04:39:17;98775.00;;;2.31;100.00
76406;BME280;65234;50.044;19.258;2023-02-22T04:41:44;98776.72;;;2.35;100.00
76406;BME280;65234;50.044;19.258;2023-02-22T04:44:10;98771.78;;;2.41;100.00
76406;BME280;65234;50.044;19.258;2023-02-22T04:46:35;98778.97;;;2.46;100.00
76406;BME280;65234;50.044;19.258;2023-02-22T04:49:01;98760.53;;;2.43;100.00
76406;BME280;65234;50.044;19.258;2023-02-22T04:51:27;98770.31;;;2.56;100.00
76406;BME280;65234;50.044;19.258;2023-02-22T04:53:53;98771.22;;;2.60;100.00
76406;BME280;65234;50.044;19.258;2023-02-22T04:56:19;98769.38;;;2.64;100.00
76406;BME280;65234;50.044;19.258;2023-02-22T04:58:46;98774.59;;;2.69;100.00
76406;BME280;65234;50.044;19.258;2023-02-22T05:01:13;98768.00;;;2.70;100.00
76406;BME280;65234;50.044;19.258;2023-02-22T05:03:39;98768.09;;;2.73;100.00
76406;BME280;65234;50.044;19.258;2023-02-22T05:06:05;98769.34;;;2.76;100.00
76406;BME280;65234;50.044;19.258;2023-02-22T05:08:31;98764.31;;;2.78;100.00
76406;BME280;65234;50.044;19.258;2023-02-22T05:10:57;98771.38;;;2.79;100.00
76406;BME280;65234;50.044;19.258;2023-02-22T05:13:22;98770.78;;;2.85;100.00
76406;BME280;65234;50.044;19.258;2023-02-22T05:15:50;98764.09;;;2.83;100.00
76406;BME280;65234;50.044;19.258;2023-02-22T05:18:15;98767.72;;;2.87;100.00
76406;BME280;65234;50.044;19.258;2023-02-22T05:20:41;98765.00;;;2.87;100.00
76406;BME280;65234;50.044;19.258;2023-02-22T05:23:07;98769.31;;;2.88;100.00
76406;BME280;65234;50.044;19.258;2023-02-22T05:25:33;98778.88;;;2.94;100.00
76406;BME280;65234;50.044;19.258;2023-02-22T05:28:02;98774.53;;;2.93;100.00
76406;BME280;65234;50.044;19.258;2023-02-22T05:30:30;98773.84;;;2.96;100.00
76406;BME280;65234;50.044;19.258;2023-02-22T05:32:57;98768.47;;;3.00;100.00
76406;BME280;65234;50.044;19.258;2023-02-22T05:35:24;98779.53;;;3.03;100.00
76406;BME280;65234;50.044;19.258;2023-02-22T05:37:50;98776.69;;;3.00;100.00
76406;BME280;65234;50.044;19.258;2023-02-22T05:40:17;98779.06;;;3.01;100.00
76406;BME280;65234;50.044;19.258;2023-02-22T05:42:43;98785.91;;;3.07;100.00
76406;BME280;65234;50.044;19.258;2023-02-22T05:45:12;98790.56;;;3.07;100.00
76406;BME280;65234;50.044;19.258;2023-02-22T05:47:38;98793.66;;;3.05;100.00
76406;BME280;65234;50.044;19.258;2023-02-22T05:50:06;98795.00;;;3.11;100.00
76406;BME280;65234;50.044;19.258;2023-02-22T05:52:32;98785.63;;;3.12;100.00
76406;BME280;65234;50.044;19.258;2023-02-22T05:54:58;98799.06;;;3.17;100.00
76406;BME280;65234;50.044;19.258;2023-02-22T05:57:24;98800.56;;;3.15;100.00
76406;BME280;65234;50.044;19.258;2023-02-22T05:59:50;98800.56;;;3.15;100.00
76406;BME280;65234;50.044;19.258;2023-02-22T06:02:15;98803.84;;;3.20;100.00
76406;BME280;65234;50.044;19.258;2023-02-22T06:04:43;98805.53;;;3.25;100.00
76406;BME280;65234;50.044;19.258;2023-02-22T06:07:10;98801.56;;;3.22;100.00
76406;BME280;65234;50.044;19.258;2023-02-22T06:09:36;98811.38;;;3.23;100.00
76406;BME280;65234;50.044;19.258;2023-02-22T06:12:01;98812.28;;;3.27;100.00
76406;BME280;65234;50.044;19.258;2023-02-22T06:14:27;98817.16;;;3.34;100.00
76406;BME280;65234;50.044;19.258;2023-02-22T06:16:53;98819.09;;;3.33;100.00
76406;BME280;65234;50.044;19.258;2023-02-22T06:19:18;98819.19;;;3.37;100.00
76406;BME280;65234;50.044;19.258;2023-02-22T06:21:48;98820.88;;;3.42;100.00
76406;BME280;65234;50.044;19.258;2023-02-22T06:24:15;98831.44;;;3.27;100.00
76406;BME280;65234;50.044;19.258;2023-02-22T06:26:41;98830.19;;;3.25;100.00
76406;BME280;65234;50.044;19.258;2023-02-22T06:29:07;98836.31;;;3.34;100.00
76406;BME280;65234;50.044;19.258;2023-02-22T06:31:32;98846.22;;;3.39;100.00
76406;BME280;65234;50.044;19.258;2023-02-22T06:33:58;98835.03;;;3.44;100.00
76406;BME280;65234;50.044;19.258;2023-02-22T06:36:23;98849.41;;;3.41;100.00
76406;BME280;65234;50.044;19.258;2023-02-22T06:38:49;98844.13;;;3.48;100.00
76406;BME280;65234;50.044;19.258;2023-02-22T06:41:16;98850.84;;;3.50;100.00
76406;BME280;65234;50.044;19.258;2023-02-22T06:43:42;98853.59;;;3.50;100.00
76406;BME280;65234;50.044;19.258;2023-02-22T06:46:09;98852.56;;;3.55;100.00
76406;BME280;65234;50.044;19.258;2023-02-22T06:48:36;98860.53;;;3.48;100.00
76406;BME280;65234;50.044;19.258;2023-02-22T06:51:02;98847.75;;;3.52;100.00
76406;BME280;65234;50.044;19.258;2023-02-22T06:53:27;98862.09;;;3.61;100.00
76406;BME280;65234;50.044;19.258;2023-02-22T06:55:53;98849.75;;;3.67;100.00
76406;BME280;65234;50.044;19.258;2023-02-22T06:58:20;98856.91;;;3.71;100.00
76406;BME280;65234;50.044;19.258;2023-02-22T07:00:46;98859.31;;;3.73;100.00
76406;BME280;65234;50.044;19.258;2023-02-22T07:03:12;98864.34;;;3.71;100.00
76406;BME280;65234;50.044;19.258;2023-02-22T07:05:37;98859.69;;;3.87;100.00
76406;BME280;65234;50.044;19.258;2023-02-22T07:08:05;98859.69;;;3.87;100.00
76406;BME280;65234;50.044;19.258;2023-02-22T07:10:32;98862.34;;;3.99;100.00
76406;BME280;65234;50.044;19.258;2023-02-22T07:12:58;98867.16;;;4.02;100.00
76406;BME280;65234;50.044;19.258;2023-02-22T07:15:27;98869.69;;;3.95;100.00
76406;BME280;65234;50.044;19.258;2023-02-22T07:17:54;98868.28;;;4.01;100.00
76406;BME280;65234;50.044;19.258;2023-02-22T07:20:20;98872.81;;;4.09;100.00
76406;BME280;65234;50.044;19.258;2023-02-22T07:22:47;98864.34;;;4.14;100.00
76406;BME280;65234;50.044;19.258;2023-02-22T07:25:13;98877.41;;;4.05;100.00
76406;BME280;65234;50.044;19.258;2023-02-22T07:27:39;98874.03;;;4.12;100.00
76406;BME280;65234;50.044;19.258;2023-02-22T07:30:07;98867.69;;;4.23;100.00
76406;BME280;65234;50.044;19.258;2023-02-22T07:32:34;98875.56;;;4.25;100.00
76406;BME280;65234;50.044;19.258;2023-02-22T07:35:00;98863.97;;;4.32;100.00
76406;BME280;65234;50.044;19.258;2023-02-22T07:37:25;98867.00;;;4.26;100.00
76406;BME280;65234;50.044;19.258;2023-02-22T07:39:51;98872.28;;;4.19;100.00
76406;BME280;65234;50.044;19.258;2023-02-22T07:42:17;98875.22;;;4.26;100.00
76406;BME280;65234;50.044;19.258;2023-02-22T07:44:42;98869.19;;;4.37;100.00
76406;BME280;65234;50.044;19.258;2023-02-22T07:47:08;98873.78;;;4.33;100.00
76406;BME280;65234;50.044;19.258;2023-02-22T07:49:35;98869.75;;;4.26;100.00
76406;BME280;65234;50.044;19.258;2023-02-22T07:52:01;98865.41;;;4.25;100.00
76406;BME280;65234;50.044;19.258;2023-02-22T07:54:27;98878.13;;;4.34;100.00
76406;BME280;65234;50.044;19.258;2023-02-22T07:56:53;98878.72;;;4.43;100.00
76406;BME280;65234;50.044;19.258;2023-02-22T07:59:18;98883.78;;;4.41;100.00
76406;BME280;65234;50.044;19.258;2023-02-22T08:01:44;98866.00;;;4.35;100.00
76406;BME280;65234;50.044;19.258;2023-02-22T08:04:09;98872.34;;;4.39;100.00
76406;BME280;65234;50.044;19.258;2023-02-22T08:06:37;98878.72;;;4.43;100.00
76406;BME280;65234;50.044;19.258;2023-02-22T08:09:02;98872.56;;;4.46;100.00
76406;BME280;65234;50.044;19.258;2023-02-22T08:11:28;98874.75;;;4.56;100.00
76406;BME280;65234;50.044;19.258;2023-02-22T08:13:54;98874.50;;;4.61;100.00
76406;BME280;65234;50.044;19.258;2023-02-22T08:16:20;98874.75;;;4.71;100.00
76406;BME280;65234;50.044;19.258;2023-02-22T08:18:45;98875.69;;;4.79;100.00
76406;BME280;65234;50.044;19.258;2023-02-22T08:21:11;98880.19;;;4.87;100.00
76406;BME280;65234;50.044;19.258;2023-02-22T08:23:38;98869.31;;;4.75;100.00
76406;BME280;65234;50.044;19.258;2023-02-22T08:26:05;98878.59;;;4.86;100.00
76406;BME280;65234;50.044;19.258;2023-02-22T08:28:30;98877.38;;;4.84;100.00
76406;BME280;65234;50.044;19.258;2023-02-22T08:30:56;98880.19;;;4.87;100.00
76406;BME280;65234;50.044;19.258;2023-02-22T08:33:22;98882.69;;;4.92;100.00
76406;BME280;65234;50.044;19.258;2023-02-22T08:35:48;98889.53;;;5.02;100.00
76406;BME280;65234;50.044;19.258;2023-02-22T08:38:17;98884.44;;;5.00;100.00
76406;BME280;65234;50.044;19.258;2023-02-22T08:40:46;98886.31;;;4.96;100.00
76406;BME280;65234;50.044;19.258;2023-02-22T08:43:12;98889.38;;;4.95;100.00
76406;BME280;65234;50.044;19.258;2023-02-22T08:45:38;98890.19;;;4.95;100.00
76406;BME280;65234;50.044;19.258;2023-02-22T08:48:04;98888.41;;;5.03;100.00
76406;BME280;65234;50.044;19.258;2023-02-22T08:50:31;98882.72;;;5.11;100.00
76406;BME280;65234;50.044;19.258;2023-02-22T08:52:59;98861.59;;;4.96;100.00
76406;BME280;65234;50.044;19.258;2023-02-22T08:55:27;98888.00;;;5.20;100.00
76406;BME280;65234;50.044;19.258;2023-02-22T08:57:55;98873.91;;;5.21;100.00
76406;BME280;65234;50.044;19.258;2023-02-22T09:00:21;98881.72;;;5.39;100.00
76406;BME280;65234;50.044;19.258;2023-02-22T09:02:47;98888.38;;;5.38;100.00
76406;BME280;65234;50.044;19.258;2023-02-22T09:05:13;98886.56;;;5.45;100.00
76406;BME280;65234;50.044;19.258;2023-02-22T09:07:40;98880.16;;;5.57;100.00
76406;BME280;65234;50.044;19.258;2023-02-22T09:10:06;98887.81;;;5.67;100.00
76406;BME280;65234;50.044;19.258;2023-02-22T09:12:32;98889.56;;;5.75;100.00
76406;BME280;65234;50.044;19.258;2023-02-22T09:14:59;98877.53;;;5.83;100.00
76406;BME280;65234;50.044;19.258;2023-02-22T09:17:24;98881.75;;;5.96;100.00
76406;BME280;65234;50.044;19.258;2023-02-22T09:19:50;98883.03;;;6.02;100.00
76406;BME280;65234;50.044;19.258;2023-02-22T09:22:16;98890.50;;;6.02;100.00
76406;BME280;65234;50.044;19.258;2023-02-22T09:24:41;98887.25;;;5.96;100.00
76406;BME280;65234;50.044;19.258;2023-02-22T09:27:07;98894.03;;;6.02;100.00
76406;BME280;65234;50.044;19.258;2023-02-22T09:29:33;98895.47;;;6.15;100.00
76406;BME280;65234;50.044;19.258;2023-02-22T09:32:00;98889.28;;;6.22;100.00
76406;BME280;65234;50.044;19.258;2023-02-22T09:34:25;98883.00;;;6.22;100.00
76406;BME280;65234;50.044;19.258;2023-02-22T09:36:51;98891.47;;;6.13;100.00
76406;BME280;65234;50.044;19.258;2023-02-22T09:39:17;98894.28;;;6.16;100.00
76406;BME280;65234;50.044;19.258;2023-02-22T09:41:50;98889.34;;;6.26;100.00
76406;BME280;65234;50.044;19.258;2023-02-22T09:44:23;98888.75;;;6.36;100.00
76406;BME280;65234;50.044;19.258;2023-02-22T09:46:53;98893.09;;;6.37;100.00
76406;BME280;65234;50.044;19.258;2023-02-22T09:49:22;98885.88;;;6.29;100.00
76406;BME280;65234;50.044;19.258;2023-02-22T09:51:53;98889.53;;;6.36;100.00
76406;BME280;65234;50.044;19.258;2023-02-22T09:54:24;98895.06;;;6.59;100.00
76406;BME280;65234;50.044;19.258;2023-02-22T09:56:55;98885.69;;;6.63;100.00
76406;BME280;65234;50.044;19.258;2023-02-22T09:59:26;98889.84;;;6.54;100.00
76406;BME280;65234;50.044;19.258;2023-02-22T10:01:58;98879.81;;;6.65;100.00
76406;BME280;65234;50.044;19.258;2023-02-22T10:04:37;98876.09;;;6.80;100.00
76406;BME280;65234;50.044;19.258;2023-02-22T10:07:13;98878.91;;;6.84;100.00
76406;BME280;65234;50.044;19.258;2023-02-22T10:09:41;98878.44;;;6.78;100.00
76406;BME280;65234;50.044;19.258;2023-02-22T10:12:10;98877.53;;;6.71;100.00
76406;BME280;65234;50.044;19.258;2023-02-22T10:14:54;98879.91;;;6.72;98.41
76406;BME280;65234;50.044;19.258;2023-02-22T10:17:33;98877.50;;;6.67;99.07
76406;BME280;65234;50.044;19.258;2023-02-22T10:20:17;98863.19;;;6.84;96.35
76406;BME280;65234;50.044;19.258;2023-02-22T10:22:56;98865.84;;;7.03;95.80
76406;BME280;65234;50.044;19.258;2023-02-22T10:25:29;98861.50;;;7.02;93.73
76406;BME280;65234;50.044;19.258;2023-02-22T10:28:02;98853.56;;;6.97;94.52
76406;BME280;65234;50.044;19.258;2023-02-22T10:30:32;98862.53;;;7.21;94.44
76406;BME280;65234;50.044;19.258;2023-02-22T10:33:04;98865.53;;;7.08;94.49
76406;BME280;65234;50.044;19.258;2023-02-22T10:35:36;98855.88;;;6.95;94.61
76406;BME280;65234;50.044;19.258;2023-02-22T10:38:11;98867.16;;;7.13;94.51
76406;BME280;65234;50.044;19.258;2023-02-22T10:40:38;98861.78;;;7.24;93.22
76406;BME280;65234;50.044;19.258;2023-02-22T10:43:06;98866.22;;;7.02;93.01
76406;BME280;65234;50.044;19.258;2023-02-22T10:45:34;98865.19;;;7.14;92.92
76406;BME280;65234;50.044;19.258;2023-02-22T10:48:03;98865.47;;;7.05;90.33
76406;BME280;65234;50.044;19.258;2023-02-22T10:50:30;98860.66;;;6.98;91.89
76406;BME280;65234;50.044;19.258;2023-02-22T10:52:58;98853.59;;;7.01;93.36
76406;BME280;65234;50.044;19.258;2023-02-22T10:55:24;98859.06;;;6.97;90.70
76406;BME280;65234;50.044;19.258;2023-02-22T10:57:57;98855.31;;;6.83;90.59
76406;BME280;65234;50.044;19.258;2023-02-22T11:00:28;98856.84;;;6.80;90.79
76406;BME280;65234;50.044;19.258;2023-02-22T11:02:56;98865.78;;;6.74;90.19
76406;BME280;65234;50.044;19.258;2023-02-22T11:05:29;98862.41;;;6.84;89.44
76406;BME280;65234;50.044;19.258;2023-02-22T11:08:15;98851.56;;;6.94;90.41
76406;BME280;65234;50.044;19.258;2023-02-22T11:10:47;98856.41;;;7.04;91.91
76406;BME280;65234;50.044;19.258;2023-02-22T11:13:18;98848.78;;;7.21;90.63
76406;BME280;65234;50.044;19.258;2023-02-22T11:15:48;98846.34;;;7.16;90.59
76406;BME280;65234;50.044;19.258;2023-02-22T11:18:22;98845.44;;;7.08;88.74
76406;BME280;65234;50.044;19.258;2023-02-22T11:20:58;98842.31;;;7.09;87.95
76406;BME280;65234;50.044;19.258;2023-02-22T11:23:25;98842.00;;;7.15;87.98
76406;BME280;65234;50.044;19.258;2023-02-22T11:26:00;98840.50;;;7.21;89.02
76406;BME280;65234;50.044;19.258;2023-02-22T11:28:28;98837.22;;;7.11;87.75
76406;BME280;65234;50.044;19.258;2023-02-22T11:30:56;98835.66;;;7.10;88.76
76406;BME280;65234;50.044;19.258;2023-02-22T11:33:24;98837.97;;;7.08;88.12
76406;BME280;65234;50.044;19.258;2023-02-22T11:35:53;98839.63;;;7.13;87.74
76406;BME280;65234;50.044;19.258;2023-02-22T11:38:20;98828.72;;;7.24;89.17
76406;BME280;65234;50.044;19.258;2023-02-22T11:41:06;98843.34;;;7.28;88.16
76406;BME280;65234;50.044;19.258;2023-02-22T11:43:32;98836.63;;;7.25;87.72
76406;BME280;65234;50.044;19.258;2023-02-22T11:46:01;98838.03;;;7.42;86.28
76406;BME280;65234;50.044;19.258;2023-02-22T11:48:29;98839.13;;;7.34;86.33
76406;BME280;65234;50.044;19.258;2023-02-22T11:51:03;98842.31;;;7.39;87.96
76406;BME280;65234;50.044;19.258;2023-02-22T11:53:42;98836.13;;;7.46;87.77
76406;BME280;65234;50.044;19.258;2023-02-22T11:56:16;98845.31;;;7.27;86.79
76406;BME280;65234;50.044;19.258;2023-02-22T11:58:46;98836.72;;;7.32;87.67
76406;BME280;65234;50.044;19.258;2023-02-22T12:01:21;98831.28;;;7.39;87.49
76406;BME280;65234;50.044;19.258;2023-02-22T12:04:27;98827.28;;;7.33;87.16
76406;BME280;65234;50.044;19.258;2023-02-22T12:07:10;98832.41;;;7.35;88.03
76406;BME280;65234;50.044;19.258;2023-02-22T12:09:43;98824.25;;;7.42;85.91
76406;BME280;65234;50.044;19.258;2023-02-22T12:12:20;98830.84;;;7.34;86.78
76406;BME280;65234;50.044;19.258;2023-02-22T12:14:54;98826.91;;;7.35;87.50
76406;BME280;65234;50.044;19.258;2023-02-22T12:17:32;98825.97;;;7.24;86.66
76406;BME280;65234;50.044;19.258;2023-02-22T12:20:03;98825.28;;;7.30;86.70
76406;BME280;65234;50.044;19.258;2023-02-22T12:22:32;98827.25;;;7.30;87.25
76406;BME280;65234;50.044;19.258;2023-02-22T12:25:02;98828.13;;;7.37;87.04
76406;BME280;65234;50.044;19.258;2023-02-22T12:27:34;98819.06;;;7.37;86.29
76406;BME280;65234;50.044;19.258;2023-02-22T12:30:04;98824.63;;;7.40;86.37
76406;BME280;65234;50.044;19.258;2023-02-22T12:32:34;98823.41;;;7.38;85.94
76406;BME280;65234;50.044;19.258;2023-02-22T12:35:10;98825.81;;;7.43;86.53
76406;BME280;65234;50.044;19.258;2023-02-22T12:37:47;98819.63;;;7.49;85.14
76406;BME280;65234;50.044;19.258;2023-02-22T12:40:20;98815.31;;;7.52;84.85
76406;BME280;65234;50.044;19.258;2023-02-22T12:42:56;98811.69;;;7.44;84.54
76406;BME280;65234;50.044;19.258;2023-02-22T12:45:29;98819.59;;;7.46;84.26
76406;BME280;65234;50.044;19.258;2023-02-22T12:48:04;98819.47;;;7.39;83.34
76406;BME280;65234;50.044;19.258;2023-02-22T12:50:35;98803.41;;;7.44;83.77
76406;BME280;65234;50.044;19.258;2023-02-22T12:53:10;98790.69;;;7.33;83.56
76406;BME280;65234;50.044;19.258;2023-02-22T12:55:41;98805.88;;;7.53;85.15
76406;BME280;65234;50.044;19.258;2023-02-22T12:58:18;98804.72;;;7.54;84.58
76406;BME280;65234;50.044;19.258;2023-02-22T13:00:47;98803.88;;;7.50;85.89
76406;BME280;65234;50.044;19.258;2023-02-22T13:03:27;98794.81;;;7.49;84.73